Time;durP1;ratioP1;P1;durP2;ratioP2;P2;SDS_P1;SDS_P2;PMS_P1;PMS_P2;Temp;Humidity;BMP_temperature;BMP_pressure;BME280_temperature;BME280_humidity;BME280_pressure;Samples;Min_cycle;Max_cycle;Signal;HPM_P1;HPM_P2
2022/05/29 00:00:15;;;;;;;;;;;8.80;99.90;;;;;;5076989;28;19971;-65
2022/05/29 00:02:44;;;;;;;;;;;8.80;99.90;;;;;;5113894;22;19931;-94
2022/05/29 00:05:12;;;;;;;;;;;8.70;99.90;;;;;;5096677;28;19927;-94
2022/05/29 00:07:40;;;;;;;;;;;9.20;99.90;;;;;;5096558;28;19921;-94
2022/05/29 00:10:08;;;;;;;;;;;9.40;99.90;;;;;;5098015;28;19947;-94
2022/05/29 00:12:36;;;;;;;;;;;8.70;99.90;;;;;;5097991;28;19920;-94
2022/05/29 00:15:03;;;;;;;;;;;8.50;99.90;;;;;;5096550;28;19921;-93
2022/05/29 00:17:33;;;;;;;;;;;8.60;99.90;;;;;;5089243;28;19927;-94
2022/05/29 00:20:02;;;;;;;;;;;8.20;99.90;;;;;;5075294;28;19924;-94
2022/05/29 00:22:30;;;;;;;;;;;8.50;99.90;;;;;;5075019;28;19920;-94
2022/05/29 00:25:00;;;;;;;;;;;8.40;99.90;;;;;;5080372;28;19952;-93
2022/05/29 00:27:27;;;;;;;;;;;8.40;99.90;;;;;;5072950;28;20093;-94
2022/05/29 00:29:55;;;;;;;;;;;8.40;99.90;;;;;;5073333;28;19920;-93
2022/05/29 00:32:31;;;;;;;;;;;8.30;99.90;;;;;;5073860;28;19928;-93
2022/05/29 00:34:58;;;;;;;;;;;8.30;99.90;;;;;;5074320;28;19943;-93
2022/05/29 00:37:27;;;;;;;;;;;8.80;99.90;;;;;;5074808;28;19944;-93
2022/05/29 00:39:54;;;;;;;;;;;8.10;99.90;;;;;;5073255;28;19944;-93
2022/05/29 00:42:22;;;;;;;;;;;8.10;99.90;;;;;;5073297;28;19948;-93
2022/05/29 00:44:50;;;;;;;;;;;8.10;99.90;;;;;;5071886;28;19920;-93
2022/05/29 00:47:19;;;;;;;;;;;8.60;99.90;;;;;;5072566;28;19962;-93
2022/05/29 00:49:48;;;;;;;;;;;8.00;99.90;;;;;;5074318;28;19927;-93
2022/05/29 00:52:16;;;;;;;;;;;8.10;99.90;;;;;;5080023;28;19942;-93
2022/05/29 00:54:49;;;;;;;;;;;8.80;99.90;;;;;;5091844;28;19920;-93
2022/05/29 00:57:18;;;;;;;;;;;7.90;99.90;;;;;;5091713;28;20102;-93
2022/05/29 00:59:45;;;;;;;;;;;7.90;99.90;;;;;;5091410;28;19959;-93
2022/05/29 01:02:12;;;;;;;;;;;8.70;99.90;;;;;;5088370;28;19920;-93
2022/05/29 01:04:40;;;;;;;;;;;7.90;99.90;;;;;;5071206;28;19928;-93
2022/05/29 01:07:09;;;;;;;;;;;7.90;99.90;;;;;;5070783;28;19921;-92
2022/05/29 01:09:37;;;;;;;;;;;7.80;99.90;;;;;;5070838;28;19980;-93
2022/05/29 01:12:07;;;;;;;;;;;8.50;99.90;;;;;;5076617;28;19932;-94
2022/05/29 01:14:42;;;;;;;;;;;7.80;99.90;;;;;;5093399;28;19920;-94
2022/05/29 01:17:14;;;;;;;;;;;7.80;99.90;;;;;;5083516;28;19921;-94
2022/05/29 01:20:10;;;;;;;;;;;7.50;99.90;;;;;;5102753;28;19966;-92
2022/05/29 01:23:03;;;;;;;;;;;7.80;99.90;;;;;;5038852;28;19928;-92
2022/05/29 01:26:00;;;;;;;;;;;7.90;99.90;;;;;;5053310;28;19921;-93
2022/05/29 01:28:35;;;;;;;;;;;7.80;99.90;;;;;;5011394;28;19929;-93
2022/05/29 01:31:09;;;;;;;;;;;8.60;99.90;;;;;;5078380;28;19927;-94
2022/05/29 01:33:38;;;;;;;;;;;8.50;99.90;;;;;;5095404;28;19920;-94
2022/05/29 01:36:07;;;;;;;;;;;7.60;99.90;;;;;;5092284;28;19981;-93
2022/05/29 01:38:39;;;;;;;;;;;7.60;99.90;;;;;;5091996;28;19943;-93
2022/05/29 01:41:08;;;;;;;;;;;7.40;99.90;;;;;;5092128;28;19992;-93
2022/05/29 01:43:40;;;;;;;;;;;8.80;99.90;;;;;;5074513;28;19928;-93
2022/05/29 01:46:08;;;;;;;;;;;8.80;99.90;;;;;;5071480;28;20116;-93
2022/05/29 01:48:40;;;;;;;;;;;7.50;99.90;;;;;;5093968;28;20138;-93
2022/05/29 01:51:12;;;;;;;;;;;7.80;99.90;;;;;;5092451;28;19920;-93
2022/05/29 01:53:42;;;;;;;;;;;7.60;99.90;;;;;;5087680;28;19967;-92
2022/05/29 01:56:14;;;;;;;;;;;7.60;99.90;;;;;;5069304;28;20261;-93
2022/05/29 01:58:44;;;;;;;;;;;7.60;99.90;;;;;;5071096;28;19920;-93
2022/05/29 02:01:13;;;;;;;;;;;7.60;99.90;;;;;;5075989;28;19920;-92
2022/05/29 02:03:41;;;;;;;;;;;7.70;99.90;;;;;;5070628;28;19921;-92
2022/05/29 02:06:11;;;;;;;;;;;8.70;99.90;;;;;;5071559;28;19921;-93
2022/05/29 02:08:40;;;;;;;;;;;7.70;99.90;;;;;;5083417;28;19920;-92
2022/05/29 02:11:09;;;;;;;;;;;7.70;99.90;;;;;;5092456;28;19928;-93
2022/05/29 02:13:43;;;;;;;;;;;7.80;99.90;;;;;;5092996;28;19982;-93
2022/05/29 02:16:13;;;;;;;;;;;7.80;99.90;;;;;;5108228;22;19954;-92
2022/05/29 02:18:43;;;;;;;;;;;7.70;99.90;;;;;;5096995;28;19921;-91
2022/05/29 02:21:14;;;;;;;;;;;7.90;99.90;;;;;;5094072;28;19985;-90
2022/05/29 02:23:42;;;;;;;;;;;7.80;99.90;;;;;;5084594;28;19936;-90
2022/05/29 02:26:12;;;;;;;;;;;7.80;99.90;;;;;;5077178;28;19920;-90
2022/05/29 02:28:41;;;;;;;;;;;7.80;99.90;;;;;;5087979;28;19946;-90
2022/05/29 02:31:15;;;;;;;;;;;7.80;99.90;;;;;;5085975;28;19908;-89
2022/05/29 02:33:47;;;;;;;;;;;7.80;99.90;;;;;;5097766;28;19909;-89
2022/05/29 02:36:23;;;;;;;;;;;7.90;99.90;;;;;;5079191;28;19923;-89
2022/05/29 02:38:54;;;;;;;;;;;8.10;99.90;;;;;;5076978;28;19921;-88
2022/05/29 02:41:23;;;;;;;;;;;7.90;99.90;;;;;;5087624;28;19964;-88
2022/05/29 02:43:54;;;;;;;;;;;7.90;99.90;;;;;;5101062;28;19909;-89
2022/05/29 02:46:26;;;;;;;;;;;7.90;99.90;;;;;;5100911;28;19947;-89
2022/05/29 02:48:57;;;;;;;;;;;7.90;99.90;;;;;;5101188;28;19936;-88
2022/05/29 02:51:26;;;;;;;;;;;8.40;99.90;;;;;;5100557;28;19947;-89
2022/05/29 02:53:52;;;;;;;;;;;7.90;99.90;;;;;;5101144;28;19935;-89
2022/05/29 02:56:19;;;;;;;;;;;7.90;99.90;;;;;;5100885;28;19909;-89
2022/05/29 02:58:48;;;;;;;;;;;7.90;99.90;;;;;;5100936;28;19913;-89
2022/05/29 03:01:19;;;;;;;;;;;7.90;99.90;;;;;;5100732;28;19972;-89
2022/05/29 03:03:52;;;;;;;;;;;8.20;99.90;;;;;;5101074;28;19972;-89
2022/05/29 03:06:24;;;;;;;;;;;7.90;99.90;;;;;;5100578;28;19921;-89
2022/05/29 03:08:55;;;;;;;;;;;7.90;99.90;;;;;;5100305;28;19908;-89
2022/05/29 03:11:27;;;;;;;;;;;7.90;99.90;;;;;;5098036;28;19932;-88
2022/05/29 03:13:59;;;;;;;;;;;9.20;99.90;;;;;;5080470;28;19920;-90
2022/05/29 03:16:32;;;;;;;;;;;9.70;99.90;;;;;;5080251;28;19921;-90
2022/05/29 03:19:05;;;;;;;;;;;8.30;99.90;;;;;;5084358;28;19976;-89
2022/05/29 03:21:37;;;;;;;;;;;8.00;99.90;;;;;;5092439;28;19909;-89
2022/05/29 03:24:11;;;;;;;;;;;7.90;99.90;;;;;;5099313;28;19940;-89
2022/05/29 03:26:42;;;;;;;;;;;7.90;99.90;;;;;;5087828;28;19939;-90
2022/05/29 03:29:10;;;;;;;;;;;8.10;99.90;;;;;;5083128;28;19913;-89
2022/05/29 03:31:38;;;;;;;;;;;7.90;99.90;;;;;;5087869;28;19955;-90
2022/05/29 03:34:07;;;;;;;;;;;7.90;99.90;;;;;;5092138;28;19943;-89
2022/05/29 03:36:36;;;;;;;;;;;9.00;99.90;;;;;;5100269;28;19935;-90
2022/05/29 03:39:03;;;;;;;;;;;7.90;99.90;;;;;;5100410;28;19923;-89
2022/05/29 03:41:33;;;;;;;;;;;8.30;99.90;;;;;;5100104;28;19931;-88
2022/05/29 03:44:00;;;;;;;;;;;8.00;99.90;;;;;;5079987;28;19940;-91
2022/05/29 03:46:27;;;;;;;;;;;9.20;99.90;;;;;;5091235;28;19912;-89
2022/05/29 03:48:53;;;;;;;;;;;8.00;99.90;;;;;;5084818;28;19920;-89
2022/05/29 03:51:22;;;;;;;;;;;8.70;99.90;;;;;;5084280;28;19916;-89
2022/05/29 03:53:48;;;;;;;;;;;8.30;99.90;;;;;;5100029;28;19947;-90
2022/05/29 03:56:15;;;;;;;;;;;8.10;99.90;;;;;;5099460;28;19920;-90
2022/05/29 03:58:42;;;;;;;;;;;8.10;99.90;;;;;;5099171;28;19979;-90
2022/05/29 04:01:09;;;;;;;;;;;8.00;99.90;;;;;;5099531;28;19956;-89
2022/05/29 04:03:35;;;;;;;;;;;8.00;99.90;;;;;;5095499;28;19920;-90
2022/05/29 04:06:03;;;;;;;;;;;8.20;99.90;;;;;;5095778;28;19921;-89
2022/05/29 04:13:59;;;;;;;;;;;8.00;99.90;;;;;;5099831;28;19935;-90
2022/05/29 04:16:26;;;;;;;;;;;8.10;99.90;;;;;;5099235;28;19932;-89
2022/05/29 04:18:53;;;;;;;;;;;8.00;99.90;;;;;;5099630;28;19913;-90
2022/05/29 04:21:19;;;;;;;;;;;8.10;99.90;;;;;;5099141;28;20030;-89
2022/05/29 04:23:48;;;;;;;;;;;8.40;99.90;;;;;;5099304;28;19939;-89
2022/05/29 04:26:15;;;;;;;;;;;8.20;99.90;;;;;;5099081;28;19956;-89
2022/05/29 04:28:41;;;;;;;;;;;9.30;99.90;;;;;;5099401;28;20030;-89
2022/05/29 04:31:08;;;;;;;;;;;8.20;99.90;;;;;;5099373;28;19939;-88
2022/05/29 04:33:36;;;;;;;;;;;9.60;99.90;;;;;;5098987;28;19920;-89
2022/05/29 04:36:03;;;;;;;;;;;8.20;99.90;;;;;;5099047;28;19967;-90
2022/05/29 04:38:30;;;;;;;;;;;8.20;99.90;;;;;;5099112;28;19943;-88
2022/05/29 04:40:58;;;;;;;;;;;8.70;99.90;;;;;;5099291;28;19976;-90
2022/05/29 04:43:25;;;;;;;;;;;8.80;99.90;;;;;;5098806;28;19913;-89
2022/05/29 04:45:53;;;;;;;;;;;8.10;99.90;;;;;;5089154;28;19955;-89
2022/05/29 04:48:22;;;;;;;;;;;8.30;99.90;;;;;;5099167;28;19948;-89
2022/05/29 04:50:55;;;;;;;;;;;8.90;99.90;;;;;;5098685;28;19962;-88
2022/05/29 04:53:22;;;;;;;;;;;8.40;99.90;;;;;;5099059;28;19973;-90
2022/05/29 04:55:52;;;;;;;;;;;8.50;99.90;;;;;;5097199;28;19948;-90
2022/05/29 04:58:20;;;;;;;;;;;8.70;99.90;;;;;;5098217;28;19951;-89
2022/05/29 05:00:47;;;;;;;;;;;8.60;99.90;;;;;;5098382;28;19972;-90
2022/05/29 05:03:14;;;;;;;;;;;8.80;99.90;;;;;;5098267;28;19924;-89
2022/05/29 05:05:41;;;;;;;;;;;8.90;99.90;;;;;;5097301;28;19951;-91
2022/05/29 05:08:08;;;;;;;;;;;9.00;99.90;;;;;;5096535;28;19924;-90
2022/05/29 05:10:34;;;;;;;;;;;9.10;99.90;;;;;;5098456;28;19936;-89
2022/05/29 05:13:01;;;;;;;;;;;9.30;99.90;;;;;;5098556;28;19943;-88
2022/05/29 05:15:30;;;;;;;;;;;9.40;99.90;;;;;;5097683;28;19974;-87
2022/05/29 05:17:56;;;;;;;;;;;9.60;99.90;;;;;;5098399;28;19912;-87
2022/05/29 05:20:23;;;;;;;;;;;9.70;99.90;;;;;;5095560;28;19976;-89
2022/05/29 05:22:51;;;;;;;;;;;9.80;99.90;;;;;;5089613;28;20026;-88
2022/05/29 05:25:18;;;;;;;;;;;9.80;99.90;;;;;;5093823;28;19909;-89
2022/05/29 05:27:45;;;;;;;;;;;9.90;99.90;;;;;;5096990;28;19944;-88
2022/05/29 05:30:12;;;;;;;;;;;10.00;99.90;;;;;;5098260;28;19944;-88
2022/05/29 05:32:40;;;;;;;;;;;10.10;99.90;;;;;;5097330;28;20184;-89
2022/05/29 05:35:07;;;;;;;;;;;10.30;99.90;;;;;;5095482;28;19943;-88
2022/05/29 05:37:35;;;;;;;;;;;10.30;99.90;;;;;;5090276;28;19932;-88
2022/05/29 05:40:02;;;;;;;;;;;10.40;99.90;;;;;;5094835;28;19915;-88
2022/05/29 05:42:29;;;;;;;;;;;10.20;99.90;;;;;;5086768;28;19920;-88
2022/05/29 05:44:56;;;;;;;;;;;10.30;99.90;;;;;;5093434;28;19976;-88
2022/05/29 05:47:24;;;;;;;;;;;10.30;99.90;;;;;;5093795;28;20123;-88
2022/05/29 05:49:52;;;;;;;;;;;10.40;99.90;;;;;;5089731;28;19916;-87
2022/05/29 05:52:19;;;;;;;;;;;10.50;99.90;;;;;;5098222;28;19908;-87
2022/05/29 05:54:46;;;;;;;;;;;10.60;99.90;;;;;;5097754;28;19992;-88
2022/05/29 05:57:13;;;;;;;;;;;10.60;99.90;;;;;;5097443;28;19980;-87
2022/05/29 05:59:41;;;;;;;;;;;10.70;99.90;;;;;;5092981;28;19923;-88
2022/05/29 06:02:09;;;;;;;;;;;10.70;99.90;;;;;;5094821;28;19908;-88
2022/05/29 06:04:36;;;;;;;;;;;11.70;99.90;;;;;;5097590;28;19929;-89
2022/05/29 06:07:04;;;;;;;;;;;11.40;99.90;;;;;;5097621;28;19915;-88
2022/05/29 06:09:31;;;;;;;;;;;10.70;99.90;;;;;;5097677;28;19999;-87
2022/05/29 06:11:58;;;;;;;;;;;10.60;99.90;;;;;;5097268;28;19913;-87
2022/05/29 06:14:25;;;;;;;;;;;10.70;99.90;;;;;;5084559;28;19947;-88
2022/05/29 06:16:52;;;;;;;;;;;10.70;99.90;;;;;;5100976;28;19912;-90
2022/05/29 06:19:19;;;;;;;;;;;10.80;99.90;;;;;;5091745;28;19984;-88
2022/05/29 06:21:46;;;;;;;;;;;10.90;99.90;;;;;;5101098;28;19912;-86
2022/05/29 06:24:14;;;;;;;;;;;10.90;99.90;;;;;;5101309;28;19920;-86
2022/05/29 06:26:41;;;;;;;;;;;10.90;99.90;;;;;;5100346;28;19958;-88
2022/05/29 06:29:08;;;;;;;;;;;10.90;99.90;;;;;;5101159;28;19948;-87
2022/05/29 06:31:35;;;;;;;;;;;10.80;99.90;;;;;;5101609;28;19912;-88
2022/05/29 06:34:02;;;;;;;;;;;11.60;99.90;;;;;;5101700;28;19936;-88
2022/05/29 06:36:29;;;;;;;;;;;10.90;99.90;;;;;;5100905;28;19943;-89
2022/05/29 06:38:56;;;;;;;;;;;10.90;99.90;;;;;;5095426;28;19908;-87
2022/05/29 06:41:26;;;;;;;;;;;10.90;99.90;;;;;;5100210;28;19935;-88
2022/05/29 06:43:53;;;;;;;;;;;11.60;99.90;;;;;;5101240;28;19914;-87
2022/05/29 06:46:20;;;;;;;;;;;11.10;99.90;;;;;;5100737;28;19909;-87
2022/05/29 06:48:47;;;;;;;;;;;11.00;99.90;;;;;;5101325;28;19946;-86
2022/05/29 06:51:15;;;;;;;;;;;11.10;99.90;;;;;;5100855;28;19909;-87
2022/05/29 06:53:45;;;;;;;;;;;11.10;99.90;;;;;;5100988;28;19912;-88
2022/05/29 06:56:12;;;;;;;;;;;11.20;99.90;;;;;;5100413;28;19932;-87
2022/05/29 06:58:41;;;;;;;;;;;11.20;99.90;;;;;;5100893;28;19912;-88
2022/05/29 07:09:22;;;;;;;;;;;11.20;99.90;;;;;;5092324;28;19931;-89
2022/05/29 07:11:52;;;;;;;;;;;11.20;99.90;;;;;;5091547;28;19967;-88
2022/05/29 07:14:24;;;;;;;;;;;11.60;99.90;;;;;;5090396;28;19909;-88
2022/05/29 07:16:51;;;;;;;;;;;11.30;99.90;;;;;;5091171;28;19931;-88
2022/05/29 07:19:20;;;;;;;;;;;11.30;99.90;;;;;;5091274;28;19923;-88
2022/05/29 07:21:47;;;;;;;;;;;12.00;99.90;;;;;;5094600;28;19909;-88
2022/05/29 07:24:15;;;;;;;;;;;11.50;99.90;;;;;;5091942;28;19939;-88
2022/05/29 07:26:50;;;;;;;;;;;11.50;99.90;;;;;;5088747;28;19939;-89
2022/05/29 07:29:25;;;;;;;;;;;11.60;99.90;;;;;;5091901;28;19916;-88
2022/05/29 07:32:06;;;;;;;;;;;11.70;99.90;;;;;;5100683;28;19940;-88
2022/05/29 07:34:33;;;;;;;;;;;11.00;99.90;;;;;;5100648;28;19923;-89
2022/05/29 07:37:05;;;;;;;;;;;11.90;99.90;;;;;;5086704;28;19909;-87
2022/05/29 07:39:35;;;;;;;;;;;11.70;99.90;;;;;;5084877;28;19913;-88
2022/05/29 07:44:48;;;;;;;;;;;11.70;99.90;;;;;;5091062;28;20026;-87
2022/05/29 07:53:23;;;;;;;;;;;12.00;99.90;;;;;;5096619;28;20105;-88
2022/05/29 07:55:50;;;;;;;;;;;11.90;99.90;;;;;;5098798;28;19912;-87
2022/05/29 07:58:20;;;;;;;;;;;12.30;99.90;;;;;;5098921;28;19923;-87
2022/05/29 08:00:48;;;;;;;;;;;12.40;99.90;;;;;;5099196;28;19935;-87
2022/05/29 08:03:19;;;;;;;;;;;12.50;99.90;;;;;;5099474;28;19980;-89
2022/05/29 08:05:48;;;;;;;;;;;12.10;99.90;;;;;;5099013;28;19954;-87
2022/05/29 08:08:15;;;;;;;;;;;13.20;99.90;;;;;;5099481;28;19915;-87
2022/05/29 08:10:45;;;;;;;;;;;12.60;99.90;;;;;;5099297;28;19921;-87
2022/05/29 08:13:12;;;;;;;;;;;13.10;99.90;;;;;;5098923;28;19935;-88
2022/05/29 08:15:41;;;;;;;;;;;12.40;99.90;;;;;;5098880;28;19950;-87
2022/05/29 08:18:11;;;;;;;;;;;12.70;99.90;;;;;;5099822;28;19912;-88
2022/05/29 08:20:39;;;;;;;;;;;12.60;99.90;;;;;;5099432;28;19916;-88
2022/05/29 08:23:18;;;;;;;;;;;12.60;99.90;;;;;;5098924;28;19936;-88
2022/05/29 08:31:23;;;;;;;;;;;12.50;99.90;;;;;;5063748;28;19909;-87
2022/05/29 08:33:53;;;;;;;;;;;12.20;99.90;;;;;;5099283;28;19940;-87
2022/05/29 08:36:24;;;;;;;;;;;12.60;99.90;;;;;;5098815;28;19976;-88
2022/05/29 08:38:52;;;;;;;;;;;12.60;99.90;;;;;;5098465;28;19952;-87
2022/05/29 08:41:30;;;;;;;;;;;12.70;99.90;;;;;;5098894;28;19914;-88
2022/05/29 08:44:02;;;;;;;;;;;12.90;99.90;;;;;;5098360;28;19920;-88
2022/05/29 08:46:35;;;;;;;;;;;12.80;99.90;;;;;;5094490;28;19936;-89
2022/05/29 08:49:04;;;;;;;;;;;13.00;99.90;;;;;;5094127;28;19912;-87
2022/05/29 08:51:45;;;;;;;;;;;13.00;99.90;;;;;;5096363;28;19912;-88
2022/05/29 08:54:14;;;;;;;;;;;12.30;99.90;;;;;;5098058;28;19952;-88
2022/05/29 08:56:46;;;;;;;;;;;13.20;99.90;;;;;;5098366;28;19946;-87
2022/05/29 08:59:16;;;;;;;;;;;13.40;99.90;;;;;;5095912;28;20018;-87
2022/05/29 09:01:49;;;;;;;;;;;13.50;99.90;;;;;;5090242;28;19943;-89
2022/05/29 09:04:24;;;;;;;;;;;13.50;99.90;;;;;;5088472;28;19936;-90
2022/05/29 09:06:52;;;;;;;;;;;13.60;99.90;;;;;;5087757;28;19948;-89
2022/05/29 09:09:30;;;;;;;;;;;13.60;99.90;;;;;;5084148;28;19909;-87
2022/05/29 09:12:01;;;;;;;;;;;13.80;99.90;;;;;;5096455;28;19965;-87
2022/05/29 09:14:34;;;;;;;;;;;14.00;99.90;;;;;;5095736;28;19909;-87
2022/05/29 09:17:04;;;;;;;;;;;13.20;99.90;;;;;;5098305;28;19932;-86
2022/05/29 09:19:51;;;;;;;;;;;13.60;99.90;;;;;;5093909;28;19912;-86
2022/05/29 09:22:20;;;;;;;;;;;13.60;99.90;;;;;;5078286;28;19916;-87
2022/05/29 09:24:51;;;;;;;;;;;13.60;99.90;;;;;;5087665;28;19943;-89
2022/05/29 09:27:19;;;;;;;;;;;13.60;99.90;;;;;;5091599;28;19940;-89
2022/05/29 09:29:55;;;;;;;;;;;13.60;99.90;;;;;;5081063;28;19930;-89
2022/05/29 09:32:34;;;;;;;;;;;13.50;99.90;;;;;;5097502;28;19914;-89
2022/05/29 09:35:22;;;;;;;;;;;13.50;99.90;;;;;;5097699;28;19992;-88
2022/05/29 09:38:21;;;;;;;;;;;13.50;99.90;;;;;;5087602;28;19909;-90
2022/05/29 09:44:24;;;;;;;;;;;14.00;99.90;;;;;;5073782;28;19955;-88
2022/05/29 09:52:52;;;;;;;;;;;13.60;99.90;;;;;;5084176;28;19912;-87
2022/05/29 09:55:24;;;;;;;;;;;14.50;99.90;;;;;;5097172;28;19912;-87
2022/05/29 09:57:53;;;;;;;;;;;13.60;99.90;;;;;;5097496;28;19916;-87
2022/05/29 10:00:28;;;;;;;;;;;13.00;99.90;;;;;;5094696;28;19973;-89
2022/05/29 10:02:55;;;;;;;;;;;13.40;99.90;;;;;;5092350;28;19928;-87
2022/05/29 10:05:24;;;;;;;;;;;13.20;99.90;;;;;;5095714;28;19921;-87
2022/05/29 10:07:52;;;;;;;;;;;13.60;99.90;;;;;;5094656;28;19921;-89
2022/05/29 10:10:32;;;;;;;;;;;13.50;99.90;;;;;;5095169;28;19920;-88
2022/05/29 10:13:03;;;;;;;;;;;13.40;99.90;;;;;;5094445;28;19920;-89
2022/05/29 10:15:41;;;;;;;;;;;13.40;99.90;;;;;;5094627;28;19976;-87
2022/05/29 10:18:15;;;;;;;;;;;13.50;99.90;;;;;;5094469;28;20203;-88
2022/05/29 10:20:42;;;;;;;;;;;13.50;99.90;;;;;;5092496;28;19943;-90
2022/05/29 10:23:10;;;;;;;;;;;13.60;99.90;;;;;;5085312;28;19932;-90
2022/05/29 10:25:39;;;;;;;;;;;13.30;99.90;;;;;;5096773;28;19951;-87
2022/05/29 10:28:15;;;;;;;;;;;13.60;99.90;;;;;;5097439;28;19924;-90
2022/05/29 10:30:48;;;;;;;;;;;13.70;99.90;;;;;;5098035;28;19988;-90
2022/05/29 10:33:20;;;;;;;;;;;13.50;99.90;;;;;;5096610;28;19908;-89
2022/05/29 10:35:52;;;;;;;;;;;13.80;99.90;;;;;;5085641;28;19920;-87
2022/05/29 10:38:26;;;;;;;;;;;13.80;99.90;;;;;;5090743;28;19912;-87
2022/05/29 10:40:59;;;;;;;;;;;13.70;99.90;;;;;;5086577;28;19912;-88
2022/05/29 10:43:46;;;;;;;;;;;13.70;99.90;;;;;;5089291;28;19988;-88
2022/05/29 10:46:20;;;;;;;;;;;13.70;99.90;;;;;;5085446;28;19920;-89
2022/05/29 10:48:58;;;;;;;;;;;13.60;99.90;;;;;;5087736;28;19940;-88
2022/05/29 10:51:34;;;;;;;;;;;13.50;99.90;;;;;;5084399;28;19975;-89
2022/05/29 10:54:18;;;;;;;;;;;13.50;99.90;;;;;;5088625;28;19931;-88
2022/05/29 10:56:50;;;;;;;;;;;13.30;99.90;;;;;;5090109;28;19932;-89
2022/05/29 10:59:26;;;;;;;;;;;13.30;99.90;;;;;;5090657;28;19920;-89
2022/05/29 11:05:14;;;;;;;;;;;13.30;99.90;;;;;;5030900;28;19986;-88
2022/05/29 11:07:49;;;;;;;;;;;13.50;99.90;;;;;;5082960;28;20056;-88
2022/05/29 11:10:24;;;;;;;;;;;13.50;99.90;;;;;;5083247;28;19943;-89
2022/05/29 11:13:09;;;;;;;;;;;13.50;99.90;;;;;;5088691;28;19989;-89
2022/05/29 11:15:40;;;;;;;;;;;13.60;99.90;;;;;;5089771;28;19912;-87
2022/05/29 11:18:20;;;;;;;;;;;13.60;99.90;;;;;;5089130;28;19912;-88
2022/05/29 11:20:55;;;;;;;;;;;13.60;99.90;;;;;;5094676;28;19924;-88
2022/05/29 11:23:33;;;;;;;;;;;13.50;99.90;;;;;;5090688;28;20172;-88
2022/05/29 11:26:02;;;;;;;;;;;13.50;99.90;;;;;;5090216;28;19964;-89
2022/05/29 11:28:41;;;;;;;;;;;13.50;99.90;;;;;;5090066;28;19950;-90
2022/05/29 11:31:13;;;;;;;;;;;13.50;99.90;;;;;;5089794;28;19997;-89
2022/05/29 11:33:55;;;;;;;;;;;14.10;99.90;;;;;;5088157;28;19927;-88
2022/05/29 11:36:27;;;;;;;;;;;13.50;99.90;;;;;;5092086;28;20274;-88
2022/05/29 11:39:01;;;;;;;;;;;13.60;99.90;;;;;;5090403;28;19925;-88
2022/05/29 11:41:31;;;;;;;;;;;13.60;99.90;;;;;;5088713;28;19981;-90
2022/05/29 11:44:00;;;;;;;;;;;13.60;99.90;;;;;;5093176;28;19946;-89
2022/05/29 11:52:05;;;;;;;;;;;13.40;99.90;;;;;;5095797;28;19935;-88
2022/05/29 11:54:34;;;;;;;;;;;12.90;99.90;;;;;;5091711;28;19988;-87
2022/05/29 11:57:04;;;;;;;;;;;12.70;99.90;;;;;;5093029;28;19932;-88
2022/05/29 11:59:38;;;;;;;;;;;12.60;99.90;;;;;;5090339;28;19980;-89
2022/05/29 12:02:09;;;;;;;;;;;12.50;99.90;;;;;;5091634;28;20011;-89
2022/05/29 12:04:38;;;;;;;;;;;12.40;99.90;;;;;;5091638;28;19924;-88
2022/05/29 12:07:08;;;;;;;;;;;12.40;99.90;;;;;;5089634;28;19992;-88
2022/05/29 12:09:38;;;;;;;;;;;12.40;99.90;;;;;;5087839;28;19960;-89
2022/05/29 12:12:07;;;;;;;;;;;12.40;99.90;;;;;;5091945;28;19985;-89
2022/05/29 12:14:37;;;;;;;;;;;12.20;99.90;;;;;;5094116;28;20141;-90
2022/05/29 12:17:07;;;;;;;;;;;12.00;99.90;;;;;;5089542;28;19927;-90
2022/05/29 12:19:38;;;;;;;;;;;11.90;99.90;;;;;;5089052;28;19920;-88
2022/05/29 12:22:07;;;;;;;;;;;12.00;99.90;;;;;;5094559;28;19976;-89
2022/05/29 12:24:36;;;;;;;;;;;12.00;99.90;;;;;;5088476;28;20005;-88
2022/05/29 12:27:06;;;;;;;;;;;12.00;99.90;;;;;;5090743;28;19932;-89
2022/05/29 12:29:50;;;;;;;;;;;12.10;99.90;;;;;;5076505;28;19932;-85
2022/05/29 12:32:20;;;;;;;;;;;12.00;99.90;;;;;;5073971;28;21934;-88
2022/05/29 12:34:49;;;;;;;;;;;12.00;99.90;;;;;;5078741;28;20122;-86
2022/05/29 12:37:29;;;;;;;;;;;12.00;99.90;;;;;;5073802;28;19928;-87
2022/05/29 12:40:10;;;;;;;;;;;12.00;99.90;;;;;;5086769;28;19922;-88
2022/05/29 12:42:53;;;;;;;;;;;12.00;99.90;;;;;;5087343;28;19976;-90
2022/05/29 12:45:34;;;;;;;;;;;12.10;99.90;;;;;;5091329;28;19913;-89
2022/05/29 12:48:30;;;;;;;;;;;12.20;99.90;;;;;;5084780;28;19968;-91
2022/05/29 12:54:05;;;;;;;;;;;12.50;99.90;;;;;;5061482;28;19912;-90
2022/05/29 12:56:43;;;;;;;;;;;12.40;99.90;;;;;;5090313;28;19947;-90
2022/05/29 12:59:42;;;;;;;;;;;12.10;99.90;;;;;;5089565;28;19971;-90
2022/05/29 13:02:16;;;;;;;;;;;12.10;99.90;;;;;;5077477;28;19909;-89
2022/05/29 13:05:01;;;;;;;;;;;12.10;99.90;;;;;;5093470;28;19915;-89
2022/05/29 13:07:30;;;;;;;;;;;12.10;99.90;;;;;;5088386;28;19935;-89
2022/05/29 13:10:14;;;;;;;;;;;12.30;99.90;;;;;;5090326;28;20016;-89
2022/05/29 13:12:56;;;;;;;;;;;12.50;99.90;;;;;;5088640;28;19930;-90
2022/05/29 13:15:26;;;;;;;;;;;12.70;99.90;;;;;;5088201;28;19968;-89
2022/05/29 13:18:04;;;;;;;;;;;12.90;99.90;;;;;;5087778;28;19934;-89
2022/05/29 13:20:51;;;;;;;;;;;12.90;99.90;;;;;;5093354;28;19980;-90
2022/05/29 13:23:31;;;;;;;;;;;12.80;99.90;;;;;;5090996;28;19939;-90
2022/05/29 13:26:15;;;;;;;;;;;12.80;99.90;;;;;;5090759;28;19928;-91
2022/05/29 13:29:00;;;;;;;;;;;12.90;99.90;;;;;;5088556;28;19921;-90
2022/05/29 13:31:31;;;;;;;;;;;13.00;99.90;;;;;;5088402;28;19923;-91
2022/05/29 13:34:20;;;;;;;;;;;13.00;99.90;;;;;;5090991;28;19909;-89
2022/05/29 13:37:05;;;;;;;;;;;13.00;99.90;;;;;;5087418;28;20026;-90
2022/05/29 13:39:47;;;;;;;;;;;13.10;99.90;;;;;;5089229;28;19943;-90
2022/05/29 13:42:23;;;;;;;;;;;13.20;99.90;;;;;;5094330;28;19952;-90
2022/05/29 13:44:50;;;;;;;;;;;13.30;99.90;;;;;;5090738;28;19908;-89
2022/05/29 13:47:37;;;;;;;;;;;13.30;99.90;;;;;;5090655;28;19932;-89
2022/05/29 13:50:15;;;;;;;;;;;13.40;99.90;;;;;;5088779;28;19913;-89
2022/05/29 13:52:47;;;;;;;;;;;13.40;99.90;;;;;;5091730;28;19917;-90
2022/05/29 13:55:17;;;;;;;;;;;13.40;99.90;;;;;;5092997;28;19942;-90
2022/05/29 14:06:19;;;;;;;;;;;13.20;99.90;;;;;;5089290;28;19935;-91
2022/05/29 14:08:49;;;;;;;;;;;13.30;99.90;;;;;;5091768;28;19980;-91
2022/05/29 14:11:17;;;;;;;;;;;13.30;99.90;;;;;;5088706;28;19985;-90
2022/05/29 14:13:45;;;;;;;;;;;13.70;99.90;;;;;;5087467;28;19943;-89
2022/05/29 14:16:18;;;;;;;;;;;13.30;99.90;;;;;;5100588;22;19991;-67
2022/05/29 14:18:46;;;;;;;;;;;13.50;99.90;;;;;;5100922;28;19927;-67
2022/05/29 14:21:35;;;;;;;;;;;13.80;99.90;;;;;;5102504;28;19920;-67
2022/05/29 14:24:20;;;;;;;;;;;14.20;99.90;;;;;;5082951;28;19924;-67
2022/05/29 14:26:59;;;;;;;;;;;14.40;99.90;;;;;;5075466;28;19920;-67
2022/05/29 14:29:43;;;;;;;;;;;14.60;99.90;;;;;;5091762;28;19942;-67
2022/05/29 14:32:19;;;;;;;;;;;14.50;99.90;;;;;;5103627;28;19920;-68
2022/05/29 14:34:53;;;;;;;;;;;14.40;99.90;;;;;;5103110;28;19920;-66
2022/05/29 14:37:26;;;;;;;;;;;14.10;99.90;;;;;;5106610;28;19924;-66
2022/05/29 14:39:57;;;;;;;;;;;14.10;99.90;;;;;;5107229;28;20115;-66
2022/05/29 14:42:26;;;;;;;;;;;14.00;99.90;;;;;;5105037;28;19920;-66
2022/05/29 14:44:58;;;;;;;;;;;14.00;99.90;;;;;;5086981;28;19920;-67
2022/05/29 14:47:29;;;;;;;;;;;13.90;99.90;;;;;;5096440;28;19943;-67
2022/05/29 14:50:00;;;;;;;;;;;13.70;99.90;;;;;;5094338;28;19927;-67
2022/05/29 14:52:29;;;;;;;;;;;13.50;99.90;;;;;;5098213;28;19943;-67
2022/05/29 14:54:58;;;;;;;;;;;13.20;99.90;;;;;;5096236;28;19928;-67
2022/05/29 14:57:29;;;;;;;;;;;12.90;99.90;;;;;;5096296;28;20234;-67
2022/05/29 14:59:56;;;;;;;;;;;12.70;99.90;;;;;;5105493;28;19958;-67
2022/05/29 15:02:29;;;;;;;;;;;12.60;99.90;;;;;;5095842;28;19921;-67
2022/05/29 15:05:00;;;;;;;;;;;12.60;99.90;;;;;;5083535;28;19928;-67
2022/05/29 15:10:33;;;;;;;;;;;12.70;99.90;;;;;;5085805;28;19930;-67
2022/05/29 15:13:07;;;;;;;;;;;12.90;99.90;;;;;;5085517;28;19924;-67
2022/05/29 15:15:37;;;;;;;;;;;13.00;99.90;;;;;;5083858;28;19954;-68
2022/05/29 15:18:08;;;;;;;;;;;13.20;99.90;;;;;;5085774;28;19920;-67
2022/05/29 15:26:13;;;;;;;;;;;13.40;99.90;;;;;;5084010;28;20003;-67
2022/05/29 15:28:43;;;;;;;;;;;13.30;99.90;;;;;;5082077;28;20175;-66
2022/05/29 15:31:11;;;;;;;;;;;13.20;99.90;;;;;;5082425;28;20116;-67
2022/05/29 15:33:41;;;;;;;;;;;13.30;99.90;;;;;;5081160;28;19984;-67
2022/05/29 15:36:11;;;;;;;;;;;13.40;99.90;;;;;;5084356;28;19983;-67
2022/05/29 15:38:40;;;;;;;;;;;13.60;99.90;;;;;;5081553;28;19939;-67
2022/05/29 15:41:12;;;;;;;;;;;13.70;99.90;;;;;;5084334;28;19981;-67
2022/05/29 15:43:52;;;;;;;;;;;14.00;99.90;;;;;;5080858;28;19920;-67
2022/05/29 15:46:34;;;;;;;;;;;14.10;99.90;;;;;;5068632;28;19928;-67
2022/05/29 15:49:17;;;;;;;;;;;14.30;99.90;;;;;;5079370;28;19963;-67
2022/05/29 15:51:48;;;;;;;;;;;14.30;99.90;;;;;;5081530;28;19927;-68